Wautoma, WI

4:07 PM CST on December 07, 2016 (GMT -0600)
Richford | | Change Station

Elev 892 ft 44.03 °N, 89.39 °W | Updated 1 minute ago

Overcast
Overcast
21.0 °F
Feels Like 21 °F
N
3.0
Wind Variable Wind from West
Gusts 14.0 mph

Today
High -- | Low -- °F
--% Chance of Precip.
Yesterday
High -- | Low -- °F
Precip. -- in
Pressure 30.07 in
Visibility 10.0 miles
Clouds Overcast 2500 ft
Windchill 21 °F
Dew Point 14 °F
Humidity 74%
Rainfall 0.00 in
Snow Depth Not available.
7:18 AM 4:18 PM
First Quarter, 56% visible
METAR KY50 072156Z AUTO 26015G21KT 10SM OVC025 M06/M10 A2999 RMK AO2 SNB2059E29 SLP183 P0000 T10561100
Pressure 30.07 in
Visibility 10.0 miles
Clouds Overcast 2500 ft
Windchill 21 °F
Dew Point 14 °F
Humidity 74%
Rainfall 0.00 in
Snow Depth Not available.
7:18 AM 4:18 PM
First Quarter, 56% visible
METAR KY50 072156Z AUTO 26015G21KT 10SM OVC025 M06/M10 A2999 RMK AO2 SNB2059E29 SLP183 P0000 T10561100

10-Day Weather Forecast

Almanac

Astronomy

Dec. 07, 2016 Rise Set
Actual Time
Civil Twilight
Nautical Twilight
Astronomical Twilight
Moon
Length of Visible Light
Length of Day
Tomorrow will be .
, % of the Moon is Illuminated

Today's Extremes

State Highs State Lows

Community

WunderPhotos

Upload Photos

1,956,209 photos uploaded!

WunderBlog® & News

Nearby

Air Quality

  Air Quality AQ Index Pollutant
Not available.

Snow Depth

Station Depth Elevation

Earthquake Activity

City Distance Mag. Time & Date
Minimum magnitude displayed is 2.5.

Coastal Water Temperatures

Place Temperature

Stations

Nearby Weather Stations

Station Location Temp. Windchill Dew Point Humidity Wind Precip. Elev Updated Type
                   

Watches & Warnings

There are currently no watches in effect.